Time;durP1;ratioP1;P1;durP2;ratioP2;P2;SDS_P1;SDS_P2;PMS_P1;PMS_P2;Temp;Humidity;BMP_temperature;BMP_pressure;BME280_temperature;BME280_humidity;BME280_pressure;Samples;Min_cycle;Max_cycle;Signal;HPM_P1;HPM_P2
2021/04/24 00:00:12;;;;;;;5.10;1.92;;;4.20;75.50;;;;;;5042485;28;20319;-67
2021/04/24 00:02:40;;;;;;;3.83;1.60;;;4.20;76.10;;;;;;5043892;28;20395;-68
2021/04/24 00:05:19;;;;;;;4.97;2.05;;;4.20;75.70;;;;;;5049289;28;20240;-68
2021/04/24 00:07:47;;;;;;;9.52;2.17;;;4.10;76.50;;;;;;5051225;28;20057;-69
2021/04/24 00:10:15;;;;;;;4.75;2.22;;;4.20;75.90;;;;;;5048271;28;20068;-68
2021/04/24 00:12:43;;;;;;;3.78;1.50;;;4.20;75.60;;;;;;5051136;28;20368;-68
2021/04/24 00:15:13;;;;;;;7.78;2.35;;;4.20;76.00;;;;;;5050806;28;20236;-68
2021/04/24 00:17:41;;;;;;;4.88;2.17;;;4.20;76.10;;;;;;5050608;28;20103;-68
2021/04/24 00:20:12;;;;;;;4.07;2.30;;;4.10;76.50;;;;;;5031651;28;20052;-68
2021/04/24 00:22:40;;;;;;;3.72;1.88;;;4.00;76.60;;;;;;5050609;28;20205;-68
2021/04/24 00:25:08;;;;;;;3.58;1.55;;;3.90;76.60;;;;;;5051053;28;20065;-67
2021/04/24 00:27:35;;;;;;;6.82;1.40;;;3.90;76.90;;;;;;5049648;28;20328;-69
2021/04/24 00:30:03;;;;;;;4.38;1.50;;;3.80;76.90;;;;;;5051234;28;20091;-68
2021/04/24 00:32:30;;;;;;;4.63;1.85;;;3.70;77.30;;;;;;5046382;28;20076;-67
2021/04/24 00:34:57;;;;;;;4.22;1.95;;;3.70;77.40;;;;;;5049533;28;20279;-68
2021/04/24 00:37:24;;;;;;;2.90;1.25;;;3.70;77.60;;;;;;5048688;28;20057;-68
2021/04/24 00:39:52;;;;;;;4.63;1.38;;;3.70;77.80;;;;;;5050621;28;20084;-68
2021/04/24 00:42:18;;;;;;;3.95;2.03;;;3.70;77.70;;;;;;5049835;28;20049;-69
2021/04/24 00:44:47;;;;;;;3.92;1.67;;;3.70;77.70;;;;;;5047881;28;20375;-68
2021/04/24 00:47:14;;;;;;;3.03;1.38;;;3.70;77.70;;;;;;5048354;28;20065;-68
2021/04/24 00:49:41;;;;;;;3.85;1.48;;;3.70;77.50;;;;;;5048061;28;20060;-68
2021/04/24 00:52:08;;;;;;;4.65;1.38;;;3.70;77.10;;;;;;5047899;28;20144;-68
2021/04/24 00:54:35;;;;;;;4.97;2.03;;;3.70;77.50;;;;;;5048113;28;20077;-68
2021/04/24 00:57:04;;;;;;;3.75;1.70;;;3.70;77.70;;;;;;5049845;28;20068;-69
2021/04/24 00:59:31;;;;;;;8.05;1.52;;;3.70;78.00;;;;;;5046903;28;20064;-68
2021/04/24 01:01:58;;;;;;;4.80;1.77;;;3.70;78.00;;;;;;5041243;28;20576;-68
2021/04/24 01:04:25;;;;;;;7.10;2.58;;;3.60;77.90;;;;;;5048348;28;20129;-69
2021/04/24 01:06:52;;;;;;;6.38;1.92;;;3.70;77.50;;;;;;5046867;28;20472;-69
2021/04/24 01:09:19;;;;;;;10.60;2.33;;;3.70;77.40;;;;;;5020729;28;20144;-68
2021/04/24 01:11:46;;;;;;;4.57;1.67;;;3.70;77.40;;;;;;5046953;28;20053;-68
2021/04/24 01:14:14;;;;;;;6.13;2.65;;;3.60;77.40;;;;;;5047154;28;20053;-67
2021/04/24 01:16:42;;;;;;;7.30;2.25;;;3.60;77.30;;;;;;5049925;28;20060;-68
2021/04/24 01:19:11;;;;;;;5.22;2.22;;;3.60;77.30;;;;;;5044389;28;20341;-68
2021/04/24 01:21:40;;;;;;;6.57;2.75;;;3.60;77.40;;;;;;5019316;28;20087;-68
2021/04/24 01:24:10;;;;;;;4.50;1.85;;;3.50;77.70;;;;;;5023628;28;20113;-68
2021/04/24 01:26:37;;;;;;;3.55;1.40;;;3.30;78.10;;;;;;5036112;28;20045;-68
2021/04/24 01:29:05;;;;;;;3.53;1.27;;;3.20;78.50;;;;;;5037804;28;20072;-68
2021/04/24 01:31:33;;;;;;;3.63;1.50;;;3.10;78.70;;;;;;5035929;28;20064;-68
2021/04/24 01:34:00;;;;;;;3.78;0.90;;;3.10;79.00;;;;;;5044779;28;20338;-68
2021/04/24 01:36:30;;;;;;;3.22;1.25;;;3.10;78.90;;;;;;5038364;28;25642;-68
2021/04/24 01:38:57;;;;;;;2.97;1.13;;;2.90;79.30;;;;;;5041461;28;20352;-68
2021/04/24 01:41:25;;;;;;;2.13;1.80;;;2.90;79.40;;;;;;5041207;28;20045;-68
2021/04/24 01:43:53;;;;;;;3.15;1.52;;;2.90;79.70;;;;;;5040035;28;20119;-67
2021/04/24 01:46:21;;;;;;;3.40;1.55;;;2.90;79.70;;;;;;5041849;28;20103;-69
2021/04/24 01:48:48;;;;;;;2.50;1.17;;;2.90;79.70;;;;;;5038847;28;20087;-68
2021/04/24 01:51:15;;;;;;;2.17;1.15;;;2.90;79.70;;;;;;5041377;28;20041;-68
2021/04/24 01:53:42;;;;;;;5.00;2.35;;;2.90;79.60;;;;;;5040376;28;20080;-67
2021/04/24 01:56:10;;;;;;;6.35;1.42;;;2.90;79.70;;;;;;5042174;28;20049;-68
2021/04/24 01:58:39;;;;;;;4.20;1.75;;;2.80;79.80;;;;;;5042802;28;20349;-68
2021/04/24 02:01:10;;;;;;;4.70;1.50;;;2.80;80.00;;;;;;5036749;28;20277;-69
2021/04/24 02:03:37;;;;;;;4.40;1.80;;;2.80;79.90;;;;;;5041452;28;20053;-69
2021/04/24 02:06:06;;;;;;;2.33;1.15;;;2.80;79.60;;;;;;5041871;28;20056;-69
2021/04/24 02:08:36;;;;;;;4.88;1.80;;;2.80;79.50;;;;;;5042111;28;20123;-68
2021/04/24 02:11:07;;;;;;;6.53;1.90;;;2.80;79.50;;;;;;5043097;28;20073;-66
2021/04/24 02:13:37;;;;;;;3.85;1.23;;;2.80;79.80;;;;;;5043609;28;20049;-68
2021/04/24 02:16:13;;;;;;;4.00;1.75;;;2.70;80.10;;;;;;5043526;28;20053;-68
2021/04/24 02:18:41;;;;;;;6.57;2.17;;;2.70;80.10;;;;;;5043334;28;20104;-69
2021/04/24 02:21:08;;;;;;;5.32;2.10;;;2.70;80.00;;;;;;5043702;28;20045;-69
2021/04/24 02:23:37;;;;;;;3.42;1.17;;;2.70;80.20;;;;;;5043547;28;20116;-69
2021/04/24 02:26:12;;;;;;;3.50;1.10;;;2.60;80.10;;;;;;5042278;28;20073;-68
2021/04/24 02:28:44;;;;;;;10.05;1.92;;;2.60;80.40;;;;;;5043022;28;20057;-68
2021/04/24 02:31:12;;;;;;;3.05;1.08;;;2.60;80.40;;;;;;5043715;28;20064;-68
2021/04/24 02:33:39;;;;;;;3.75;1.17;;;2.50;80.80;;;;;;5041727;28;20096;-68
2021/04/24 02:36:07;;;;;;;3.30;1.40;;;2.60;80.70;;;;;;5043568;28;20049;-68
2021/04/24 02:38:35;;;;;;;2.83;1.23;;;2.50;80.40;;;;;;5043124;28;20124;-68
2021/04/24 02:41:05;;;;;;;1.55;0.82;;;2.40;80.90;;;;;;5043266;28;20250;-69
2021/04/24 02:43:33;;;;;;;4.63;1.73;;;2.30;81.30;;;;;;5043263;28;20233;-68
2021/04/24 02:46:00;;;;;;;2.92;0.90;;;2.20;81.80;;;;;;5042445;28;20324;-68
2021/04/24 02:48:30;;;;;;;3.00;1.50;;;2.30;81.30;;;;;;5042625;28;20095;-68
2021/04/24 02:50:57;;;;;;;9.02;1.42;;;2.30;81.20;;;;;;5041506;28;20056;-69
2021/04/24 02:53:24;;;;;;;1.77;1.00;;;2.30;81.20;;;;;;5043080;28;20067;-68
2021/04/24 02:55:51;;;;;;;5.10;1.23;;;2.30;81.40;;;;;;5039973;28;20160;-68
2021/04/24 02:58:18;;;;;;;3.45;1.35;;;2.20;81.70;;;;;;5040257;28;20292;-68
2021/04/24 03:00:45;;;;;;;4.30;1.35;;;2.20;81.90;;;;;;5035889;28;20057;-68
2021/04/24 03:03:13;;;;;;;6.80;1.42;;;2.20;81.70;;;;;;5040728;28;20125;-68
2021/04/24 03:05:43;;;;;;;8.00;2.05;;;2.10;81.90;;;;;;5040571;28;20060;-67
2021/04/24 03:08:11;;;;;;;6.25;1.40;;;2.10;81.90;;;;;;5040820;28;20160;-68
2021/04/24 03:10:40;;;;;;;4.00;1.58;;;2.00;81.90;;;;;;5039814;28;20100;-68
2021/04/24 03:13:08;;;;;;;3.67;1.38;;;2.00;82.30;;;;;;5040845;28;20064;-68
2021/04/24 03:15:35;;;;;;;4.78;1.30;;;2.00;82.40;;;;;;5040773;28;20060;-68
2021/04/24 03:18:02;;;;;;;4.07;1.27;;;2.10;81.90;;;;;;5039587;28;20416;-68
2021/04/24 03:20:31;;;;;;;2.80;1.08;;;2.20;81.70;;;;;;5040490;28;20049;-67
2021/04/24 03:23:00;;;;;;;8.57;2.53;;;2.20;81.90;;;;;;5036768;28;20064;-67
2021/04/24 03:25:32;;;;;;;5.28;1.50;;;2.20;81.50;;;;;;5038699;28;20056;-67
2021/04/24 03:27:59;;;;;;;6.03;1.70;;;2.30;81.90;;;;;;5039448;28;20428;-68
2021/04/24 03:30:27;;;;;;;5.10;2.10;;;2.20;82.60;;;;;;5040444;28;20076;-68
2021/04/24 03:32:54;;;;;;;3.80;1.77;;;2.20;82.90;;;;;;5037498;28;20153;-68
2021/04/24 03:35:20;;;;;;;5.80;2.03;;;2.20;83.10;;;;;;5048827;28;20041;-67
2021/04/24 03:37:47;;;;;;;3.92;1.63;;;2.20;82.60;;;;;;5047589;28;20128;-68
2021/04/24 03:40:16;;;;;;;4.65;1.88;;;2.10;82.80;;;;;;5049610;28;20114;-69
2021/04/24 03:42:43;;;;;;;9.07;1.77;;;2.00;83.00;;;;;;5048658;28;20117;-68
2021/04/24 03:45:18;;;;;;;5.18;2.30;;;2.00;83.10;;;;;;5052050;28;20057;-68
2021/04/24 03:47:46;;;;;;;6.55;1.73;;;1.80;83.10;;;;;;5050466;28;20280;-68
2021/04/24 03:50:14;;;;;;;5.18;2.45;;;1.90;83.30;;;;;;5050903;28;20112;-67
2021/04/24 03:52:41;;;;;;;6.07;2.15;;;1.80;83.30;;;;;;5051285;28;20146;-68
2021/04/24 03:55:09;;;;;;;5.40;1.90;;;1.90;83.60;;;;;;5050292;28;20049;-68
2021/04/24 03:57:37;;;;;;;4.43;2.08;;;1.80;83.60;;;;;;5051124;28;20132;-68
2021/04/24 04:00:09;;;;;;;4.75;1.75;;;1.80;83.30;;;;;;5048478;28;20582;-68
2021/04/24 04:02:47;;;;;;;5.65;1.67;;;1.70;83.20;;;;;;5048798;28;20126;-67
2021/04/24 04:05:15;;;;;;;3.35;1.38;;;1.70;83.30;;;;;;5050697;28;20064;-68
2021/04/24 04:07:43;;;;;;;3.83;1.40;;;1.70;83.40;;;;;;5051604;28;20119;-67
2021/04/24 04:10:11;;;;;;;4.35;1.02;;;1.80;83.10;;;;;;5033696;28;20216;-69
2021/04/24 04:12:39;;;;;;;6.25;1.38;;;1.70;83.20;;;;;;5040050;28;20045;-67
2021/04/24 04:15:08;;;;;;;2.78;1.83;;;1.70;83.30;;;;;;5048613;28;20370;-68
2021/04/24 04:17:37;;;;;;;6.55;1.67;;;1.70;83.40;;;;;;5049568;28;20097;-67
2021/04/24 04:20:06;;;;;;;3.38;1.70;;;1.70;83.60;;;;;;5047454;28;20049;-67
2021/04/24 04:22:32;;;;;;;4.82;1.40;;;1.80;82.80;;;;;;5033186;28;20336;-68
2021/04/24 04:24:59;;;;;;;4.38;1.42;;;1.80;83.10;;;;;;5048670;28;21021;-68
2021/04/24 04:27:26;;;;;;;2.97;1.38;;;1.80;82.90;;;;;;5050055;28;20245;-68
2021/04/24 04:29:54;;;;;;;5.85;1.58;;;1.90;82.60;;;;;;5049651;28;20156;-68
2021/04/24 04:32:21;;;;;;;3.25;1.42;;;1.90;82.40;;;;;;5046451;28;20309;-68
2021/04/24 04:34:49;;;;;;;4.57;1.88;;;2.00;82.30;;;;;;5041650;28;20042;-68
2021/04/24 04:37:16;;;;;;;4.10;2.08;;;2.00;83.10;;;;;;5040263;28;20140;-67
2021/04/24 04:39:42;;;;;;;3.80;1.88;;;2.00;83.10;;;;;;5039813;28;20163;-68
2021/04/24 04:42:10;;;;;;;5.80;2.00;;;2.00;83.00;;;;;;5040335;28;20052;-67
2021/04/24 04:44:37;;;;;;;8.35;3.42;;;2.00;83.10;;;;;;5038144;28;20169;-67
2021/04/24 04:47:04;;;;;;;6.47;2.10;;;2.00;82.90;;;;;;5037599;28;20308;-70
2021/04/24 04:49:32;;;;;;;11.68;3.03;;;2.00;83.00;;;;;;5038080;28;20064;-68
2021/04/24 04:51:59;;;;;;;5.68;2.53;;;2.10;82.90;;;;;;5037797;28;20080;-67
2021/04/24 04:54:26;;;;;;;4.60;2.17;;;2.10;82.90;;;;;;5037160;28;20131;-69
2021/04/24 04:56:53;;;;;;;9.60;2.15;;;2.20;82.70;;;;;;5037788;28;20108;-67
2021/04/24 04:59:19;;;;;;;7.40;2.90;;;2.20;82.50;;;;;;5037762;28;20214;-66
2021/04/24 05:01:46;;;;;;;4.15;1.85;;;2.30;82.70;;;;;;5016264;28;20079;-68
2021/04/24 05:04:14;;;;;;;6.30;2.42;;;2.30;82.60;;;;;;5038758;28;20056;-68
2021/04/24 05:06:42;;;;;;;4.40;1.80;;;2.20;83.10;;;;;;5037642;28;20061;-68
2021/04/24 05:09:09;;;;;;;4.95;2.28;;;2.30;83.20;;;;;;5038027;28;20059;-67
2021/04/24 05:11:37;;;;;;;7.13;3.00;;;2.40;82.80;;;;;;5037756;28;20345;-67
2021/04/24 05:14:05;;;;;;;7.07;2.42;;;2.50;82.70;;;;;;5038500;28;20307;-68
2021/04/24 05:16:32;;;;;;;3.45;1.73;;;2.50;82.20;;;;;;5037662;28;20388;-67
2021/04/24 05:18:59;;;;;;;5.03;2.38;;;2.60;82.40;;;;;;5037205;28;20406;-68
2021/04/24 05:21:27;;;;;;;7.15;2.38;;;2.70;82.00;;;;;;5038198;28;20063;-68
2021/04/24 05:23:54;;;;;;;7.40;2.38;;;2.80;81.60;;;;;;5033817;28;20049;-68
2021/04/24 05:26:21;;;;;;;6.30;2.20;;;2.80;81.40;;;;;;5036902;28;20050;-67
2021/04/24 05:28:48;;;;;;;7.60;2.28;;;2.80;81.50;;;;;;5036233;28;20045;-67
2021/04/24 05:31:15;;;;;;;9.15;2.72;;;2.90;81.40;;;;;;5034938;28;20076;-68
2021/04/24 05:33:42;;;;;;;7.05;2.30;;;3.00;81.20;;;;;;5037772;28;20123;-67
2021/04/24 05:36:11;;;;;;;6.30;2.03;;;3.10;80.80;;;;;;5038124;28;20069;-68
2021/04/24 05:38:39;;;;;;;6.40;3.00;;;3.20;80.80;;;;;;5037830;28;20053;-68
2021/04/24 05:41:09;;;;;;;7.13;2.63;;;3.30;80.50;;;;;;5039239;28;20056;-67
2021/04/24 05:43:36;;;;;;;13.65;3.03;;;3.40;80.30;;;;;;5022316;28;20304;-68
2021/04/24 05:46:10;;;;;;;6.50;2.05;;;3.50;80.00;;;;;;5023010;28;20056;-67
2021/04/24 05:48:41;;;;;;;12.35;3.33;;;3.60;79.50;;;;;;5039007;28;20060;-68
2021/04/24 05:51:08;;;;;;;8.40;2.90;;;3.70;79.10;;;;;;5040440;28;20410;-66
2021/04/24 05:53:35;;;;;;;10.25;3.47;;;3.70;78.80;;;;;;5038183;28;20090;-68
2021/04/24 05:56:05;;;;;;;7.32;2.00;;;3.80;78.80;;;;;;5038697;28;20084;-68
2021/04/24 05:58:32;;;;;;;7.78;2.70;;;3.90;78.50;;;;;;5040229;28;20049;-67
2021/04/24 06:00:59;;;;;;;7.60;2.58;;;4.00;78.30;;;;;;5034455;28;21066;-68
2021/04/24 06:03:26;;;;;;;7.22;2.85;;;4.10;77.80;;;;;;5044313;28;20050;-68
2021/04/24 06:05:53;;;;;;;6.55;2.60;;;4.10;78.00;;;;;;5044172;28;20703;-68
2021/04/24 06:08:20;;;;;;;7.82;2.78;;;4.20;77.80;;;;;;5043869;28;20049;-68
2021/04/24 06:10:47;;;;;;;7.88;3.95;;;4.40;77.30;;;;;;5043846;28;20061;-68
2021/04/24 06:13:14;;;;;;;6.80;2.38;;;4.50;77.00;;;;;;5043773;28;20056;-68
2021/04/24 06:15:41;;;;;;;8.50;2.75;;;4.60;76.70;;;;;;5043218;28;20533;-68
2021/04/24 06:18:09;;;;;;;5.50;2.00;;;4.70;76.40;;;;;;5043829;28;20068;-68
2021/04/24 06:20:36;;;;;;;6.95;2.92;;;4.80;76.40;;;;;;5044131;28;20080;-68
2021/04/24 06:23:03;;;;;;;10.43;3.13;;;5.00;75.90;;;;;;5041877;28;20053;-68
2021/04/24 06:25:30;;;;;;;7.28;3.38;;;5.00;75.80;;;;;;5043305;28;20065;-68
2021/04/24 06:27:57;;;;;;;6.22;2.70;;;5.10;75.70;;;;;;5043161;28;20053;-68
2021/04/24 06:30:28;;;;;;;8.35;3.47;;;5.20;75.30;;;;;;5043599;28;20061;-68
2021/04/24 06:32:55;;;;;;;;;;;5.30;75.20;;;;;;5041491;28;20061;-69
2021/04/24 06:35:23;;;;;;;7.90;2.95;;;5.30;75.10;;;;;;5042111;28;19960;-68
2021/04/24 06:37:50;;;;;;;7.55;2.53;;;5.50;75.00;;;;;;5040987;28;20045;-68
2021/04/24 06:40:18;;;;;;;7.90;2.63;;;5.60;74.50;;;;;;5041815;28;20124;-68
2021/04/24 06:42:46;;;;;;;6.85;3.33;;;5.70;74.50;;;;;;5039628;28;20221;-67
2021/04/24 06:45:15;;;;;;;7.60;2.88;;;5.80;74.20;;;;;;5040098;28;20069;-67
2021/04/24 06:47:43;;;;;;;8.55;3.28;;;6.00;74.20;;;;;;5039664;28;20248;-67
2021/04/24 06:50:13;;;;;;;9.32;2.70;;;6.20;73.70;;;;;;5041350;28;20065;-68
2021/04/24 06:52:40;;;;;;;9.00;2.70;;;6.50;73.10;;;;;;5041077;28;20057;-68
2021/04/24 06:55:09;;;;;;;8.73;3.15;;;6.60;72.30;;;;;;5041493;28;20368;-68
2021/04/24 06:57:36;;;;;;;9.55;3.67;;;6.80;72.20;;;;;;5040379;28;20057;-68
2021/04/24 07:00:09;;;;;;;9.25;3.00;;;7.00;71.70;;;;;;5038971;28;20105;-68
2021/04/24 07:02:36;;;;;;;7.90;3.58;;;7.20;71.60;;;;;;5041051;28;20381;-68
2021/04/24 07:05:07;;;;;;;8.93;3.67;;;7.40;69.90;;;;;;5040797;28;20073;-68
2021/04/24 07:07:34;;;;;;;8.00;3.25;;;7.60;69.00;;;;;;5030365;28;20073;-69
2021/04/24 07:10:02;;;;;;;12.07;3.60;;;7.70;68.30;;;;;;5037367;28;20080;-69
2021/04/24 07:12:30;;;;;;;8.75;3.38;;;7.80;67.70;;;;;;5040871;28;20218;-69
2021/04/24 07:14:57;;;;;;;9.95;3.70;;;8.00;67.30;;;;;;5036221;28;20053;-69
2021/04/24 07:17:24;;;;;;;12.50;4.53;;;8.20;66.00;;;;;;5040730;28;20045;-68
2021/04/24 07:19:51;;;;;;;8.95;3.33;;;8.40;65.80;;;;;;5040296;28;20061;-69
2021/04/24 07:22:19;;;;;;;12.43;4.72;;;8.50;64.90;;;;;;5036353;28;20073;-68
2021/04/24 07:24:46;;;;;;;7.75;3.25;;;8.70;63.90;;;;;;5041801;28;20099;-68
2021/04/24 07:27:13;;;;;;;11.15;4.15;;;8.80;63.20;;;;;;5038877;28;20064;-69
2021/04/24 07:29:41;;;;;;;11.25;3.67;;;9.00;62.40;;;;;;5039615;28;20356;-68
2021/04/24 07:32:08;;;;;;;7.82;3.50;;;9.10;61.70;;;;;;5043282;28;20057;-69
2021/04/24 07:34:35;;;;;;;9.23;3.90;;;9.30;61.40;;;;;;5041492;28;20076;-68
2021/04/24 07:37:06;;;;;;;13.00;3.72;;;9.40;61.60;;;;;;5041717;28;20064;-68
2021/04/24 07:39:33;;;;;;;;;;;9.50;60.80;;;;;;5042727;28;20079;-69
2021/04/24 07:42:00;;;;;;;10.20;3.25;;;9.60;59.30;;;;;;5036521;28;20637;-69
2021/04/24 07:44:32;;;;;;;8.40;3.28;;;9.70;59.10;;;;;;5036631;28;20378;-69
2021/04/24 07:46:59;;;;;;;17.48;4.00;;;9.80;58.60;;;;;;5035802;28;20720;-68
2021/04/24 07:49:26;;;;;;;7.80;3.70;;;9.90;58.20;;;;;;5032518;28;20081;-68
2021/04/24 07:51:53;;;;;;;13.95;4.43;;;10.00;57.80;;;;;;5033038;28;20227;-68
2021/04/24 07:54:20;;;;;;;9.98;4.35;;;10.00;57.90;;;;;;5037597;28;20116;-68
2021/04/24 07:56:48;;;;;;;10.55;4.00;;;10.20;57.20;;;;;;5037225;28;20045;-68
2021/04/24 07:59:15;;;;;;;12.50;4.15;;;10.30;57.30;;;;;;5034844;28;20224;-68
2021/04/24 08:01:42;;;;;;;13.63;4.60;;;10.50;56.30;;;;;;5034820;28;20056;-67
2021/04/24 08:04:09;;;;;;;13.77;4.38;;;10.60;56.10;;;;;;5020416;28;20068;-67
2021/04/24 08:06:36;;;;;;;10.52;3.97;;;10.70;55.10;;;;;;5034217;28;20046;-67
2021/04/24 08:09:04;;;;;;;9.70;3.85;;;10.80;55.10;;;;;;5041922;28;20394;-67
2021/04/24 08:11:31;;;;;;;16.00;3.72;;;10.90;54.30;;;;;;5039195;28;20155;-67
2021/04/24 08:13:59;;;;;;;9.57;4.47;;;11.10;53.60;;;;;;5034843;28;20072;-69
2021/04/24 08:16:26;;;;;;;13.98;4.35;;;11.10;53.60;;;;;;5036851;28;20053;-67
2021/04/24 08:18:53;;;;;;;10.77;3.63;;;11.10;52.70;;;;;;5034973;28;20057;-68
2021/04/24 08:21:21;;;;;;;8.25;4.57;;;11.10;52.90;;;;;;5035246;28;20056;-68
2021/04/24 08:23:48;;;;;;;7.72;3.60;;;11.20;52.70;;;;;;5033565;28;20074;-68
2021/04/24 08:26:15;;;;;;;7.15;3.70;;;11.30;53.00;;;;;;5034042;28;20050;-67
2021/04/24 08:28:42;;;;;;;7.25;3.08;;;11.40;53.20;;;;;;5038185;28;20045;-67
2021/04/24 08:31:10;;;;;;;20.17;5.47;;;11.60;52.50;;;;;;5036605;28;20336;-67
2021/04/24 08:33:37;;;;;;;11.13;4.00;;;11.60;51.90;;;;;;5032921;28;20084;-68
2021/04/24 08:36:05;;;;;;;10.77;4.15;;;11.70;52.00;;;;;;5035545;28;20069;-69
2021/04/24 08:38:32;;;;;;;9.10;3.50;;;11.60;52.60;;;;;;5034151;28;20056;-68
2021/04/24 08:40:59;;;;;;;9.25;4.00;;;11.70;52.10;;;;;;5036251;28;20498;-69
2021/04/24 08:43:26;;;;;;;10.90;3.80;;;11.80;51.60;;;;;;5034186;28;20099;-68
2021/04/24 08:45:56;;;;;;;10.27;4.38;;;11.90;51.20;;;;;;5034183;28;20072;-68
2021/04/24 08:48:23;;;;;;;10.77;3.60;;;12.00;50.60;;;;;;5034532;28;20120;-68
2021/04/24 08:50:50;;;;;;;9.63;5.25;;;12.10;51.20;;;;;;5032520;28;20422;-68
2021/04/24 08:53:19;;;;;;;9.90;4.20;;;12.10;50.60;;;;;;5034228;28;20084;-68
2021/04/24 08:55:46;;;;;;;17.83;5.28;;;12.20;51.10;;;;;;5031867;28;20068;-68
2021/04/24 08:58:14;;;;;;;10.73;4.60;;;12.30;50.40;;;;;;5018416;28;20068;-67
2021/04/24 09:00:43;;;;;;;9.55;4.70;;;12.30;49.70;;;;;;5031861;28;20104;-68
2021/04/24 09:03:12;;;;;;;10.23;3.80;;;12.30;49.90;;;;;;5019473;28;20037;-67
2021/04/24 09:05:40;;;;;;;15.73;4.65;;;12.40;49.80;;;;;;5034577;28;20049;-67
2021/04/24 09:08:08;;;;;;;10.38;4.68;;;12.40;49.00;;;;;;5032659;28;20053;-67
2021/04/24 09:10:41;;;;;;;12.95;4.55;;;12.50;49.60;;;;;;5034365;28;20049;-68
2021/04/24 09:13:09;;;;;;;11.00;4.22;;;12.60;49.50;;;;;;5036346;28;20049;-67
2021/04/24 09:15:37;;;;;;;11.82;4.25;;;12.80;49.50;;;;;;5038421;28;20295;-67
2021/04/24 09:18:05;;;;;;;13.07;4.72;;;12.90;48.20;;;;;;5035249;28;20088;-68
2021/04/24 09:20:34;;;;;;;11.45;4.55;;;12.90;47.80;;;;;;5035496;28;20057;-68
2021/04/24 09:23:11;;;;;;;9.45;4.72;;;13.10;48.50;;;;;;5037653;28;20046;-67
2021/04/24 09:25:46;;;;;;;12.10;4.22;;;13.20;48.40;;;;;;5016124;28;20037;-68
2021/04/24 09:28:25;;;;;;;9.68;4.70;;;13.30;47.10;;;;;;5031334;28;20064;-68
2021/04/24 09:30:53;;;;;;;13.27;5.53;;;13.40;47.00;;;;;;5035293;28;20061;-67
2021/04/24 09:33:20;;;;;;;13.93;5.25;;;13.70;47.10;;;;;;5031856;28;20060;-68
2021/04/24 09:35:51;;;;;;;12.43;3.65;;;13.80;45.10;;;;;;5032251;28;20060;-67
2021/04/24 09:38:25;;;;;;;13.43;4.53;;;13.70;45.30;;;;;;5022411;28;20052;-68
2021/04/24 09:41:10;;;;;;;10.55;4.63;;;14.00;46.20;;;;;;5038899;28;20060;-68
2021/04/24 09:44:02;;;;;;;10.80;4.30;;;14.20;46.00;;;;;;5039277;28;20065;-67
2021/04/24 09:46:32;;;;;;;13.98;4.72;;;14.50;45.10;;;;;;5037098;28;20049;-67
2021/04/24 09:49:17;;;;;;;10.68;4.10;;;14.70;44.70;;;;;;5037305;28;20719;-66
2021/04/24 09:51:47;;;;;;;12.25;4.30;;;15.00;43.80;;;;;;5037859;28;20049;-67
2021/04/24 09:54:16;;;;;;;10.13;5.25;;;15.00;43.10;;;;;;5038142;28;20042;-67
2021/04/24 09:56:55;;;;;;;11.98;4.68;;;15.10;42.60;;;;;;5035239;28;20569;-68
2021/04/24 09:59:22;;;;;;;14.57;4.70;;;15.20;42.70;;;;;;5038575;28;20069;-68
2021/04/24 10:01:55;;;;;;;10.60;4.72;;;15.60;42.00;;;;;;5032075;28;20344;-67
2021/04/24 10:04:22;;;;;;;11.63;5.05;;;15.90;40.90;;;;;;5037947;28;20103;-67
2021/04/24 10:06:53;;;;;;;10.60;5.35;;;16.30;40.60;;;;;;5037482;28;20124;-68
2021/04/24 10:09:22;;;;;;;;;;;16.80;38.20;;;;;;5038861;28;20302;-68
2021/04/24 10:12:11;;;;;;;12.07;4.43;;;17.60;36.10;;;;;;5020027;28;19999;-67
2021/04/24 10:14:43;;;;;;;10.02;4.32;;;18.60;34.70;;;;;;5016281;28;20818;-67
2021/04/24 10:17:18;;;;;;;11.82;4.45;;;19.60;32.90;;;;;;5035890;28;20053;-68
2021/04/24 10:19:46;;;;;;;11.35;5.57;;;20.50;31.40;;;;;;5034679;28;20360;-68
2021/04/24 10:22:15;;;;;;;13.35;5.30;;;21.80;29.00;;;;;;5038844;28;20062;-67
2021/04/24 10:24:44;;;;;;;9.77;4.33;;;21.80;27.60;;;;;;5041321;28;20345;-67
2021/04/24 10:27:13;;;;;;;11.20;4.82;;;21.70;28.20;;;;;;5040089;28;20316;-67
2021/04/24 10:29:42;;;;;;;16.38;5.30;;;23.30;27.90;;;;;;5036908;28;20095;-69
2021/04/24 10:32:09;;;;;;;10.40;4.70;;;24.20;25.90;;;;;;5037197;28;20135;-68
2021/04/24 10:34:36;;;;;;;12.63;5.18;;;24.10;25.70;;;;;;5035945;28;20057;-67
2021/04/24 10:37:04;;;;;;;10.18;4.72;;;24.50;25.10;;;;;;5035569;28;20391;-68
2021/04/24 10:39:33;;;;;;;13.80;5.25;;;24.40;25.10;;;;;;5036348;28;20064;-68
2021/04/24 10:42:05;;;;;;;9.52;4.60;;;24.80;25.00;;;;;;5036038;28;20422;-67
2021/04/24 10:44:53;;;;;;;10.90;5.72;;;25.10;24.30;;;;;;5037980;28;20091;-67
2021/04/24 10:47:43;;;;;;;10.75;5.35;;;25.10;24.30;;;;;;5033854;28;20324;-68
2021/04/24 10:50:12;;;;;;;16.33;5.57;;;25.60;24.10;;;;;;5035244;28;21297;-68
2021/04/24 10:52:42;;;;;;;10.93;4.57;;;26.10;23.60;;;;;;5036663;28;20049;-69
2021/04/24 10:55:16;;;;;;;;;;;26.30;23.50;;;;;;5036517;28;20376;-67
2021/04/24 10:57:46;;;;;;;12.93;5.20;;;26.60;22.50;;;;;;5037907;28;19936;-68
2021/04/24 11:00:15;;;;;;;11.23;4.78;;;26.80;22.10;;;;;;5036058;28;20358;-68
2021/04/24 11:02:45;;;;;;;10.13;4.43;;;27.20;21.40;;;;;;5042768;28;20057;-68
2021/04/24 11:05:22;;;;;;;9.43;4.85;;;27.70;21.00;;;;;;5039631;28;20113;-69
2021/04/24 11:08:20;;;;;;;12.18;4.72;;;27.50;20.90;;;;;;5036269;28;20053;-68
2021/04/24 11:10:47;;;;;;;18.25;5.80;;;27.40;21.40;;;;;;5041085;28;20042;-67
2021/04/24 11:13:17;;;;;;;11.57;5.07;;;27.40;21.70;;;;;;5035436;28;20144;-67
2021/04/24 11:15:45;;;;;;;15.80;7.28;;;27.40;21.20;;;;;;5039763;28;20064;-68
2021/04/24 11:18:14;;;;;;;11.15;4.97;;;27.30;21.80;;;;;;5039606;28;20049;-69
2021/04/24 11:20:53;;;;;;;10.55;5.10;;;27.60;21.30;;;;;;5042717;28;20048;-68
2021/04/24 11:23:44;;;;;;;13.45;4.45;;;27.70;21.20;;;;;;5044043;28;20049;-68
2021/04/24 11:26:17;;;;;;;10.40;5.05;;;27.80;21.70;;;;;;5039818;28;20473;-69
2021/04/24 11:29:02;;;;;;;9.35;4.80;;;28.30;20.60;;;;;;5046208;28;20056;-67
2021/04/24 11:31:58;;;;;;;11.75;4.45;;;28.30;20.20;;;;;;5029426;28;20049;-68
2021/04/24 11:34:32;;;;;;;9.15;4.47;;;29.40;19.90;;;;;;5040781;28;21004;-68
2021/04/24 11:37:32;;;;;;;10.48;4.78;;;29.40;19.40;;;;;;5052541;28;20954;-68
2021/04/24 11:40:30;;;;;;;10.15;4.72;;;28.20;20.60;;;;;;5052365;28;20372;-69
2021/04/24 11:43:02;;;;;;;8.75;4.50;;;29.40;19.20;;;;;;5051028;28;20045;-69
2021/04/24 11:46:05;;;;;;;10.35;4.90;;;29.20;19.40;;;;;;5053809;28;20052;-68
2021/04/24 11:49:00;;;;;;;9.27;4.78;;;28.80;19.50;;;;;;5051137;28;20554;-68
2021/04/24 11:51:42;;;;;;;9.38;4.82;;;27.80;20.30;;;;;;5048909;28;20690;-68
2021/04/24 11:54:13;;;;;;;10.90;5.30;;;28.20;21.00;;;;;;5045843;28;20485;-68
2021/04/24 11:56:44;;;;;;;9.15;4.53;;;29.10;20.40;;;;;;5042875;28;20053;-68
2021/04/24 11:59:11;;;;;;;11.55;4.38;;;29.50;19.50;;;;;;5043590;28;20049;-68
2021/04/24 12:01:40;;;;;;;9.93;4.65;;;29.50;19.30;;;;;;5042474;28;20101;-69
2021/04/24 12:04:22;;;;;;;14.45;4.55;;;29.50;19.10;;;;;;5048440;28;20045;-69
2021/04/24 12:06:49;;;;;;;12.10;5.03;;;29.00;19.90;;;;;;5050073;28;20045;-68
2021/04/24 12:09:16;;;;;;;10.60;5.10;;;27.90;20.50;;;;;;5035878;28;20103;-68
2021/04/24 12:11:55;;;;;;;12.88;6.55;;;29.00;20.00;;;;;;5044377;28;20316;-68
2021/04/24 12:14:22;;;;;;;10.30;4.50;;;29.50;19.20;;;;;;5023451;28;20275;-68
2021/04/24 12:16:51;;;;;;;10.75;4.47;;;29.80;19.00;;;;;;5030939;28;20041;-68
2021/04/24 12:19:30;;;;;;;11.47;5.00;;;30.50;18.50;;;;;;5033762;28;20080;-68
2021/04/24 12:22:25;;;;;;;9.88;5.00;;;30.90;17.90;;;;;;5036704;28;20041;-68
2021/04/24 12:25:02;;;;;;;9.93;4.72;;;30.80;18.00;;;;;;5015608;28;20045;-68
2021/04/24 12:27:35;;;;;;;10.18;4.88;;;30.70;17.90;;;;;;5028984;28;20110;-68
2021/04/24 12:30:14;;;;;;;8.85;4.65;;;30.70;18.10;;;;;;5034620;28;20059;-68
2021/04/24 12:32:47;;;;;;;12.85;4.50;;;31.00;17.50;;;;;;5034278;28;20049;-67
2021/04/24 12:35:25;;;;;;;9.43;4.38;;;30.90;17.90;;;;;;5036092;28;20045;-68
2021/04/24 12:38:00;;;;;;;10.32;4.43;;;30.80;17.90;;;;;;5039917;28;20057;-68
2021/04/24 12:40:32;;;;;;;10.00;4.72;;;31.50;17.80;;;;;;5037023;28;20065;-68
2021/04/24 12:43:06;;;;;;;11.18;4.60;;;31.00;17.50;;;;;;5034908;28;20587;-68
2021/04/24 12:45:33;;;;;;;10.38;4.65;;;31.40;17.50;;;;;;5029176;28;20057;-68
2021/04/24 12:48:02;;;;;;;9.15;4.00;;;30.80;17.70;;;;;;5031921;28;20407;-68
2021/04/24 12:50:32;;;;;;;9.95;4.47;;;32.10;16.90;;;;;;5030501;28;20317;-67
2021/04/24 12:53:02;;;;;;;9.65;5.43;;;32.90;16.20;;;;;;5030554;28;21185;-68
2021/04/24 12:55:32;;;;;;;13.20;5.00;;;32.90;16.10;;;;;;5052634;28;20048;-67
2021/04/24 12:58:03;;;;;;;7.53;3.85;;;32.50;16.20;;;;;;5037599;28;21241;-69
2021/04/24 13:00:39;;;;;;;8.45;4.65;;;32.60;16.70;;;;;;5038352;28;20052;-68
2021/04/24 13:03:27;;;;;;;14.10;5.32;;;33.50;15.80;;;;;;5024382;28;20472;-69